首页
METAR-TAF:

METAR-TAF

机场 :

巴黎戴高乐, 法国

巴黎夏尔·戴高乐机场

纬度: 49-01N, 经度: 002-32E, 海拔: 118米

当前天气观测

该预报发布于16分钟前的01:30 UTC
风速9节,风向西转西南
温度 5°C
湿度 81%
气压 1010 hPa
能见度10公里或以上
1500米以下无云,无积雨云

METAR: LFPG 190130Z 25009KT CAVOK 05/02 Q1010 NOSIG

时间: 02:46 (01:46 UTC)

预报

该预报发布于1小时和31分钟前的00:15 UTC
预报有效从19日的 00点(UTC)到 20日的 06点(UTC)
风速12节,风向西转西南
能见度10公里或以上
散云层高于2000英尺
几率 30% :
短暂存在
从 19日的 08点(UTC)到 19日的 11点(UTC)
能見度: 4000
散云层高于1500英尺, 积雨云.
小阵雨, 雪
几率 30% :
短暂存在
从 19日的 12点(UTC)到 19日的 20点(UTC)
散云层高于2000英尺, 塔状积云.
成为
从 20日的 04点(UTC)到 20日的 06点(UTC)
多云层高于1200英尺

TAF: LFPG 190015Z 1900/2006 25012KT 9999 SCT020 PROB30 TEMPO 1908/1911 4000 -SHRASN SCT015CB PROB30 TEMPO 1912/1920 SCT020TCU BECMG 2004/2006 BKN012 TX07/1915Z TN02/1906Z

超过4000个机场的气象观测和天气预报(METAR&TAF报告)。

可查询的气象台以黄色和红色小点在地图上表示。

将鼠标移到小点上方,可查看气象台名称。

然后点击查看天气观测和预报。

如需切换地图:点击带黑十字的绿色按钮放大地图;点击带横线的绿色按钮缩小地图;或者点击绿色箭头查看邻近地区的地图。


METAR-TAF: